Time;durP1;ratioP1;P1;durP2;ratioP2;P2;SDS_P1;SDS_P2;PMS_P1;PMS_P2;Temp;Humidity;BMP_temperature;BMP_pressure;BME280_temperature;BME280_humidity;BME280_pressure;Samples;Min_cycle;Max_cycle;Signal;HPM_P1;HPM_P2
2024/04/07 00:00:30;;;;;;;5.53;2.50;;;16.80;99.90;;;;;;4193840;28;20201;-77
2024/04/07 00:02:31;;;;;;;6.13;2.70;;;16.80;99.90;;;;;;4212281;28;20232;-76
2024/04/07 00:04:33;;;;;;;3.60;2.10;;;16.70;99.90;;;;;;4218077;28;20212;-77
2024/04/07 00:06:34;;;;;;;3.83;2.50;;;16.70;99.90;;;;;;4213653;28;20288;-77
2024/04/07 00:08:36;;;;;;;5.97;2.47;;;16.70;99.90;;;;;;4218206;28;20205;-77
2024/04/07 00:10:37;;;;;;;4.97;2.53;;;16.60;99.90;;;;;;4218487;28;20205;-77
2024/04/07 00:12:40;;;;;;;3.63;2.40;;;16.60;99.90;;;;;;4214842;28;20203;-77
2024/04/07 00:14:41;;;;;;;4.83;2.77;;;16.60;99.90;;;;;;4216157;28;20239;-77
2024/04/07 00:16:44;;;;;;;5.10;2.60;;;16.50;99.90;;;;;;4197055;28;20861;-77
2024/04/07 00:18:45;;;;;;;5.47;2.50;;;16.50;99.90;;;;;;4215321;28;20211;-76
2024/04/07 00:20:47;;;;;;;3.53;2.33;;;16.40;99.90;;;;;;4214943;28;20232;-76
2024/04/07 00:22:48;;;;;;;4.23;2.30;;;16.40;99.90;;;;;;4214340;28;20212;-76
2024/04/07 00:24:50;;;;;;;3.17;2.50;;;16.30;99.90;;;;;;4209493;28;20201;-76
2024/04/07 00:26:51;;;;;;;4.27;2.67;;;16.30;99.90;;;;;;4196509;28;20216;-77
2024/04/07 00:28:53;;;;;;;3.00;2.00;;;16.30;99.90;;;;;;4199746;28;20276;-77
2024/04/07 00:30:55;;;;;;;4.07;2.30;;;16.30;99.90;;;;;;4215453;28;20208;-77
2024/04/07 00:32:56;;;;;;;4.87;2.40;;;16.20;99.90;;;;;;4208169;28;20237;-77
2024/04/07 00:34:58;;;;;;;5.20;2.20;;;16.20;99.90;;;;;;4213340;28;20683;-77
2024/04/07 00:36:58;;;;;;;5.00;2.80;;;16.20;99.90;;;;;;4196034;28;20248;-77
2024/04/07 00:39:00;;;;;;;3.20;2.00;;;16.10;99.90;;;;;;4214081;28;20196;-74
2024/04/07 00:41:01;;;;;;;3.90;2.20;;;16.10;99.90;;;;;;4208457;28;20821;-76
2024/04/07 00:43:07;;;;;;;4.67;2.00;;;16.10;99.90;;;;;;4213827;28;20204;-76
2024/04/07 00:45:09;;;;;;;4.73;2.37;;;16.10;99.90;;;;;;4214527;28;20208;-76
2024/04/07 00:47:11;;;;;;;2.63;1.90;;;16.10;99.90;;;;;;4213457;28;20208;-76
2024/04/07 00:49:12;;;;;;;4.73;2.10;;;16.10;99.90;;;;;;4214024;28;20298;-76
2024/04/07 00:51:14;;;;;;;3.37;2.20;;;16.10;99.90;;;;;;4211412;28;20257;-76
2024/04/07 00:53:16;;;;;;;3.27;1.93;;;16.10;99.90;;;;;;4195170;28;20213;-76
2024/04/07 00:55:18;;;;;;;4.87;2.00;;;16.10;99.90;;;;;;4214850;28;20585;-76
2024/04/07 00:57:19;;;;;;;4.10;2.10;;;16.10;99.90;;;;;;4213189;28;20232;-76
2024/04/07 00:59:20;;;;;;;3.90;2.00;;;16.10;99.90;;;;;;4210050;28;20216;-76
2024/04/07 01:01:23;;;;;;;3.97;2.03;;;16.10;99.90;;;;;;4213031;28;20216;-76
2024/04/07 01:03:24;;;;;;;3.53;2.10;;;16.10;99.90;;;;;;4214428;28;20665;-76
2024/04/07 01:05:26;;;;;;;4.53;2.07;;;16.10;99.90;;;;;;4211895;28;20197;-76
2024/04/07 01:07:28;;;;;;;3.23;1.90;;;16.10;99.90;;;;;;4213559;28;20559;-76
2024/04/07 01:09:31;;;;;;;3.80;1.83;;;16.20;99.90;;;;;;4217106;28;20206;-76
2024/04/07 01:11:32;;;;;;;3.43;1.97;;;16.20;99.90;;;;;;4211753;28;20666;-76
2024/04/07 01:13:34;;;;;;;4.03;1.90;;;16.20;99.90;;;;;;4213251;28;20721;-76
2024/04/07 01:15:36;;;;;;;4.93;2.07;;;16.20;99.90;;;;;;4212762;28;20668;-76
2024/04/07 01:17:39;;;;;;;3.93;2.67;;;16.20;99.90;;;;;;4193617;28;20604;-76
2024/04/07 01:19:40;;;;;;;2.83;1.93;;;16.20;99.90;;;;;;4209677;28;20675;-76
2024/04/07 01:21:42;;;;;;;3.33;2.00;;;16.20;99.90;;;;;;4206592;28;20224;-77
2024/04/07 01:23:44;;;;;;;5.13;1.67;;;16.30;99.90;;;;;;4199919;28;20627;-76
2024/04/07 01:25:46;;;;;;;3.97;2.00;;;16.30;99.90;;;;;;4211713;28;20204;-76
2024/04/07 01:27:55;;;;;;;2.47;1.90;;;16.30;99.90;;;;;;4212817;28;20223;-76
2024/04/07 01:29:57;;;;;;;2.77;1.70;;;16.30;99.90;;;;;;4213386;28;20233;-76
2024/04/07 01:31:58;;;;;;;2.80;1.70;;;16.30;99.90;;;;;;4193335;28;20365;-76
2024/04/07 01:34:00;;;;;;;1.87;1.40;;;16.30;99.90;;;;;;4208506;28;20208;-76
2024/04/07 01:36:01;;;;;;;4.80;1.93;;;16.30;99.90;;;;;;4215218;28;20263;-76
2024/04/07 01:38:03;;;;;;;3.70;1.80;;;16.30;99.90;;;;;;4188659;28;20558;-76
2024/04/07 01:40:08;;;;;;;4.67;1.77;;;16.40;99.90;;;;;;4214199;28;20207;-75
2024/04/07 01:42:11;;;;;;;4.40;1.60;;;16.40;99.90;;;;;;4209908;28;20228;-76
2024/04/07 01:44:12;;;;;;;2.43;1.70;;;16.40;99.90;;;;;;4209296;28;20212;-76
2024/04/07 01:46:14;;;;;;;4.23;2.00;;;16.50;99.90;;;;;;4211043;28;20652;-76
2024/04/07 01:48:15;;;;;;;3.33;1.80;;;16.50;99.90;;;;;;4212486;28;20228;-76
2024/04/07 01:50:16;;;;;;;4.40;2.00;;;16.50;99.90;;;;;;4195900;28;20201;-75
2024/04/07 01:52:18;;;;;;;3.43;2.03;;;16.50;99.90;;;;;;4211930;28;20318;-76
2024/04/07 01:54:23;;;;;;;3.17;1.67;;;16.50;99.90;;;;;;4194485;28;20206;-76
2024/04/07 01:56:26;;;;;;;3.30;1.90;;;16.50;99.90;;;;;;4212434;28;20228;-76
2024/04/07 01:58:27;;;;;;;4.90;1.80;;;16.50;99.90;;;;;;4210440;28;20200;-76
2024/04/07 02:00:29;;;;;;;4.00;1.70;;;16.50;99.90;;;;;;4209986;28;20283;-76
2024/04/07 02:02:30;;;;;;;3.80;1.77;;;16.50;99.90;;;;;;4212592;28;20743;-75
2024/04/07 02:04:32;;;;;;;2.33;1.30;;;16.50;99.90;;;;;;4205494;28;20216;-76
2024/04/07 02:06:33;;;;;;;5.53;1.77;;;16.40;99.90;;;;;;4204462;28;20201;-76
2024/04/07 02:08:34;;;;;;;3.17;1.50;;;16.40;99.90;;;;;;4206966;28;20787;-75
2024/04/07 02:10:35;;;;;;;3.27;1.90;;;16.40;99.90;;;;;;4212154;28;20303;-76
2024/04/07 02:12:39;;;;;;;3.03;1.57;;;16.40;99.90;;;;;;4194750;28;20229;-76
2024/04/07 02:14:40;;;;;;;2.50;1.53;;;16.40;99.90;;;;;;4213570;28;20238;-76
2024/04/07 02:16:42;;;;;;;3.67;1.63;;;16.40;99.90;;;;;;4204906;28;20254;-75
2024/04/07 02:18:43;;;;;;;3.57;1.63;;;16.40;99.90;;;;;;4205355;28;20827;-76
2024/04/07 02:20:51;;;;;;;3.50;1.60;;;16.40;99.90;;;;;;4210219;28;20199;-76
2024/04/07 02:22:52;;;;;;;2.43;1.80;;;16.40;99.90;;;;;;4208017;28;20232;-75
2024/04/07 02:24:54;;;;;;;2.87;1.70;;;16.30;99.90;;;;;;4209903;28;20201;-76
2024/04/07 02:26:55;;;;;;;3.50;1.80;;;16.30;99.90;;;;;;4192935;28;20220;-76
2024/04/07 02:28:59;;;;;;;5.43;1.47;;;16.30;99.90;;;;;;4210020;28;20208;-76
2024/04/07 02:31:01;;;;;;;2.97;1.60;;;16.30;99.90;;;;;;4212963;28;20241;-75
2024/04/07 02:33:04;;;;;;;2.67;1.60;;;16.30;99.90;;;;;;4215014;28;20219;-76
2024/04/07 02:35:06;;;;;;;3.03;1.43;;;16.20;99.90;;;;;;4214786;28;20203;-76
2024/04/07 02:37:07;;;;;;;3.03;1.83;;;16.30;99.90;;;;;;4218864;28;20353;-76
2024/04/07 02:39:09;;;;;;;3.10;1.30;;;16.20;99.90;;;;;;4213232;28;20569;-76
2024/04/07 02:41:11;;;;;;;3.70;1.60;;;16.30;99.90;;;;;;4217648;28;20255;-76
2024/04/07 02:43:13;;;;;;;3.10;1.37;;;16.20;99.90;;;;;;4216387;28;20201;-76
2024/04/07 02:49:55;;;;;;;3.97;1.53;;;16.20;99.90;;;;;;4202522;28;20652;-76
2024/04/07 02:51:56;;;;;;;3.30;1.50;;;16.20;99.90;;;;;;4214842;28;20314;-75
2024/04/07 02:53:57;;;;;;;3.07;1.60;;;16.20;99.90;;;;;;4213455;28;20257;-75
2024/04/07 02:55:59;;;;;;;2.70;1.30;;;16.20;99.90;;;;;;4214964;28;20266;-76
2024/04/07 02:58:00;;;;;;;2.30;1.50;;;16.10;99.90;;;;;;4190144;28;20255;-76
2024/04/07 03:00:01;;;;;;;7.77;1.30;;;16.10;99.90;;;;;;4207928;28;20563;-76
2024/04/07 03:02:05;;;;;;;2.87;1.40;;;16.10;99.90;;;;;;4208493;28;20220;-76
2024/04/07 03:04:06;;;;;;;4.23;1.33;;;16.10;99.90;;;;;;4195058;28;20229;-75
2024/04/07 03:06:08;;;;;;;2.17;1.43;;;16.10;99.90;;;;;;4192795;28;20633;-75
2024/04/07 03:08:10;;;;;;;3.13;1.50;;;16.10;99.90;;;;;;4215155;28;20204;-75
2024/04/07 03:10:11;;;;;;;6.07;1.60;;;16.10;99.90;;;;;;4196794;28;20221;-76
2024/04/07 03:12:13;;;;;;;3.97;1.50;;;16.10;99.90;;;;;;4215273;28;20595;-76
2024/04/07 03:14:14;;;;;;;2.90;1.47;;;16.10;99.90;;;;;;4215095;28;20206;-75
2024/04/07 03:16:16;;;;;;;2.73;1.43;;;16.00;99.90;;;;;;4214695;28;20570;-75
2024/04/07 03:18:19;;;;;;;2.10;1.30;;;16.00;99.90;;;;;;4215191;28;20635;-76
2024/04/07 03:20:21;;;;;;;3.90;1.33;;;16.00;99.90;;;;;;4214676;28;20209;-75
2024/04/07 03:22:22;;;;;;;4.40;1.30;;;16.00;99.90;;;;;;4215405;28;20223;-75
2024/04/07 03:24:24;;;;;;;3.23;1.23;;;16.00;99.90;;;;;;4213576;28;20285;-76
2024/04/07 03:26:25;;;;;;;4.73;1.50;;;16.00;99.90;;;;;;4213688;28;20234;-75
2024/04/07 03:28:26;;;;;;;3.30;1.50;;;16.00;99.90;;;;;;4213770;28;20197;-75
2024/04/07 03:30:27;;;;;;;2.47;1.40;;;16.00;99.90;;;;;;4213996;28;20283;-76
2024/04/07 03:32:28;;;;;;;2.30;1.30;;;16.00;99.90;;;;;;4198000;28;20229;-76
2024/04/07 03:34:32;;;;;;;1.97;1.20;;;16.10;99.90;;;;;;4198028;28;20207;-75
2024/04/07 03:36:33;;;;;;;1.93;1.00;;;16.10;99.90;;;;;;4212354;28;20235;-75
2024/04/07 03:38:34;;;;;;;2.43;1.27;;;16.10;99.90;;;;;;4217537;28;20278;-75
2024/04/07 03:40:38;;;;;;;2.03;1.20;;;16.20;99.90;;;;;;4211259;28;20299;-75
2024/04/07 03:42:41;;;;;;;3.63;1.40;;;16.20;99.90;;;;;;4217090;28;20571;-75
2024/04/07 03:44:43;;;;;;;2.30;1.20;;;16.20;99.90;;;;;;4214194;28;20197;-75
2024/04/07 03:46:45;;;;;;;2.60;1.30;;;16.20;99.90;;;;;;4214404;28;20207;-76
2024/04/07 03:48:47;;;;;;;3.23;1.40;;;16.20;99.90;;;;;;4213741;28;20813;-75
2024/04/07 03:50:50;;;;;;;4.40;1.37;;;16.20;99.90;;;;;;4212252;28;20263;-75
2024/04/07 03:52:52;;;;;;;2.37;1.30;;;16.20;99.90;;;;;;4196190;28;20217;-76
2024/04/07 03:54:56;;;;;;;2.73;1.10;;;16.20;99.90;;;;;;4212747;28;21128;-76
2024/04/07 03:56:58;;;;;;;2.73;1.27;;;16.20;99.90;;;;;;4212875;28;20295;-76
2024/04/07 03:58:59;;;;;;;2.27;1.13;;;16.20;99.90;;;;;;4213913;28;20208;-75
2024/04/07 04:01:00;;;;;;;2.07;1.30;;;16.20;99.90;;;;;;4212828;28;20233;-75
2024/04/07 04:03:04;;;;;;;2.40;1.10;;;16.20;99.90;;;;;;4195691;28;20212;-75
2024/04/07 04:05:05;;;;;;;3.40;1.10;;;16.20;99.90;;;;;;4214035;28;20200;-75
2024/04/07 04:07:09;;;;;;;3.37;1.40;;;16.10;99.90;;;;;;4214177;28;20208;-75
2024/04/07 04:09:10;;;;;;;3.43;1.33;;;16.10;99.90;;;;;;4205175;28;20219;-76
2024/04/07 04:11:12;;;;;;;2.63;1.47;;;16.00;99.90;;;;;;4207448;28;20239;-76
2024/04/07 04:13:13;;;;;;;2.57;1.43;;;16.00;99.90;;;;;;4206572;28;20291;-76
2024/04/07 04:15:15;;;;;;;1.93;1.20;;;16.00;99.90;;;;;;4210357;28;20228;-76
2024/04/07 04:17:16;;;;;;;7.93;1.40;;;16.00;99.90;;;;;;4211463;28;20295;-76
2024/04/07 04:19:18;;;;;;;1.53;1.07;;;16.00;99.90;;;;;;4206133;28;20196;-76
2024/04/07 04:21:19;;;;;;;5.27;1.40;;;16.00;99.90;;;;;;4213189;28;20227;-76
2024/04/07 04:23:22;;;;;;;4.13;1.30;;;16.00;99.90;;;;;;4213947;28;20199;-75
2024/04/07 04:25:25;;;;;;;2.23;1.20;;;15.90;99.90;;;;;;4213887;28;20855;-76
2024/04/07 04:27:27;;;;;;;1.90;1.20;;;16.00;99.90;;;;;;4213407;28;20193;-76
2024/04/07 04:29:28;;;;;;;2.20;1.30;;;16.00;99.90;;;;;;4213617;28;20338;-76
2024/04/07 04:31:29;;;;;;;4.17;1.10;;;15.90;99.90;;;;;;4213389;28;20227;-76
2024/04/07 04:33:31;;;;;;;3.17;1.80;;;15.90;99.90;;;;;;4214042;28;20258;-76
2024/04/07 04:35:33;;;;;;;1.70;1.07;;;15.90;99.90;;;;;;4217635;28;20631;-76
2024/04/07 04:37:35;;;;;;;2.37;1.10;;;15.90;99.90;;;;;;4209397;28;20290;-76
2024/04/07 04:39:38;;;;;;;2.00;1.00;;;15.90;99.90;;;;;;4193398;28;20309;-76
2024/04/07 04:41:41;;;;;;;3.33;1.10;;;15.90;99.90;;;;;;4219280;28;20296;-76
2024/04/07 04:43:42;;;;;;;4.20;1.50;;;16.00;99.90;;;;;;4216983;28;20264;-77
2024/04/07 04:45:44;;;;;;;1.57;1.03;;;15.90;99.90;;;;;;4213161;28;20208;-77
2024/04/07 04:47:45;;;;;;;2.80;1.33;;;16.00;99.90;;;;;;4218876;28;20226;-77
2024/04/07 04:49:47;;;;;;;3.03;1.33;;;16.00;99.90;;;;;;4212539;28;20190;-77
2024/04/07 04:51:49;;;;;;;2.67;1.20;;;16.00;99.90;;;;;;4209666;28;20753;-78
2024/04/07 04:53:50;;;;;;;3.80;1.40;;;16.00;99.90;;;;;;4208769;28;20204;-77
2024/04/07 04:55:53;;;;;;;1.67;1.00;;;16.10;99.90;;;;;;4213557;28;20204;-77
2024/04/07 04:57:55;;;;;;;1.70;1.10;;;16.10;99.90;;;;;;4215666;28;20336;-77
2024/04/07 04:59:56;;;;;;;1.63;1.00;;;16.10;99.90;;;;;;4211138;28;20212;-76
2024/04/07 05:01:58;;;;;;;2.43;1.30;;;16.10;99.90;;;;;;4212234;28;20663;-77
2024/04/07 05:03:59;;;;;;;4.47;1.23;;;16.20;99.90;;;;;;4213084;28;20707;-77
2024/04/07 05:06:07;;;;;;;3.50;1.20;;;16.20;99.90;;;;;;4212440;28;20269;-78
2024/04/07 05:08:08;;;;;;;2.73;1.37;;;16.30;99.90;;;;;;4214188;28;20238;-76
2024/04/07 05:10:10;;;;;;;3.63;1.13;;;16.30;99.90;;;;;;4210646;28;20225;-77
2024/04/07 05:12:12;;;;;;;3.00;1.27;;;16.30;99.90;;;;;;4208459;28;20922;-77
2024/04/07 05:14:14;;;;;;;2.10;1.10;;;16.40;99.90;;;;;;4212962;28;20219;-77
2024/04/07 05:16:15;;;;;;;4.73;1.30;;;16.40;99.90;;;;;;4204769;28;20942;-77
2024/04/07 05:18:18;;;;;;;6.60;1.43;;;16.50;99.90;;;;;;4187287;28;20252;-77
2024/04/07 05:20:19;;;;;;;2.80;1.10;;;16.60;99.90;;;;;;4207378;28;20594;-78
2024/04/07 05:22:21;;;;;;;3.83;1.10;;;16.60;99.90;;;;;;4193921;28;20252;-77
2024/04/07 05:24:23;;;;;;;4.10;1.37;;;16.70;99.90;;;;;;4210846;28;20246;-76
2024/04/07 05:26:25;;;;;;;1.97;1.10;;;16.70;99.90;;;;;;4193071;28;20832;-76
2024/04/07 05:28:27;;;;;;;2.70;1.13;;;16.70;99.90;;;;;;4212877;28;20743;-76
2024/04/07 05:30:29;;;;;;;3.10;1.10;;;16.70;99.90;;;;;;4209540;28;20204;-76
2024/04/07 05:32:30;;;;;;;2.33;1.20;;;16.80;99.90;;;;;;4212384;28;20216;-77
2024/04/07 05:34:31;;;;;;;4.23;1.10;;;16.80;99.90;;;;;;4212268;28;20240;-77
2024/04/07 05:36:33;;;;;;;2.00;1.30;;;16.80;99.90;;;;;;4213378;28;20225;-76
2024/04/07 05:38:35;;;;;;;2.53;1.20;;;16.80;99.90;;;;;;4211534;28;20577;-76
2024/04/07 05:40:37;;;;;;;5.53;1.20;;;16.80;99.90;;;;;;4211512;28;20282;-76
2024/04/07 05:42:40;;;;;;;2.57;1.20;;;16.80;99.90;;;;;;4212313;28;20231;-76
2024/04/07 05:44:43;;;;;;;1.80;0.90;;;16.80;99.90;;;;;;4209916;28;20607;-76
2024/04/07 05:46:44;;;;;;;1.67;1.00;;;16.80;99.90;;;;;;4212290;28;20220;-76
2024/04/07 05:48:46;;;;;;;4.17;1.10;;;16.70;99.90;;;;;;4211324;28;20386;-76
2024/04/07 05:50:47;;;;;;;3.13;1.00;;;16.70;99.90;;;;;;4212393;28;20211;-76
2024/04/07 05:52:49;;;;;;;2.23;1.33;;;16.70;99.90;;;;;;4212459;28;20197;-76
2024/04/07 05:54:50;;;;;;;3.27;1.30;;;16.70;99.90;;;;;;4211645;28;20208;-76
2024/04/07 05:56:52;;;;;;;4.17;2.57;;;16.80;99.90;;;;;;4197223;28;20240;-76
2024/04/07 05:58:53;;;;;;;4.60;2.10;;;16.80;99.90;;;;;;4212088;28;20264;-76
2024/04/07 06:00:56;;;;;;;3.97;2.13;;;16.90;99.90;;;;;;4211968;28;20196;-76
2024/04/07 06:02:57;;;;;;;2.93;1.83;;;16.90;99.90;;;;;;4210291;28;20295;-76
2024/04/07 06:04:59;;;;;;;2.73;1.30;;;17.00;99.90;;;;;;4203242;28;20237;-75
2024/04/07 06:07:00;;;;;;;3.43;1.10;;;17.00;99.90;;;;;;4203321;28;20204;-76
2024/04/07 06:09:01;;;;;;;2.77;1.20;;;17.10;99.90;;;;;;4189497;28;20241;-76
2024/04/07 06:11:04;;;;;;;3.70;1.20;;;17.10;99.90;;;;;;4211225;28;20208;-75
2024/04/07 06:13:05;;;;;;;1.83;1.20;;;17.20;99.90;;;;;;4210812;28;20212;-75
2024/04/07 06:15:07;;;;;;;2.07;1.30;;;17.20;99.90;;;;;;4211937;28;20591;-75
2024/04/07 06:17:10;;;;;;;1.97;1.40;;;17.30;99.90;;;;;;4211882;28;20266;-75
2024/04/07 06:19:11;;;;;;;4.17;1.47;;;17.40;99.90;;;;;;4214161;28;20206;-75
2024/04/07 06:21:13;;;;;;;4.60;1.30;;;17.40;99.90;;;;;;4210812;28;20260;-75
2024/04/07 06:23:14;;;;;;;3.23;1.57;;;17.40;99.90;;;;;;4212096;28;20194;-75
2024/04/07 06:25:15;;;;;;;2.17;1.20;;;17.60;99.90;;;;;;4212960;28;20231;-75
2024/04/07 06:27:17;;;;;;;2.57;1.40;;;17.60;99.90;;;;;;4211824;28;20453;-75
2024/04/07 06:29:18;;;;;;;4.03;1.27;;;17.70;99.90;;;;;;4211562;28;20699;-75
2024/04/07 06:31:21;;;;;;;4.53;1.10;;;17.80;99.90;;;;;;4210359;28;20225;-75
2024/04/07 06:33:26;;;;;;;1.23;1.00;;;17.80;99.90;;;;;;4210534;28;20262;-75
2024/04/07 06:35:28;;;;;;;2.60;1.33;;;17.90;96.90;;;;;;4212899;28;20204;-75
2024/04/07 06:37:29;;;;;;;3.17;1.20;;;18.00;95.70;;;;;;4209915;28;20236;-75
2024/04/07 06:39:31;;;;;;;2.67;1.30;;;18.00;93.90;;;;;;4210333;28;20201;-75
2024/04/07 06:41:32;;;;;;;1.50;1.07;;;18.10;96.20;;;;;;4211605;28;20227;-75
2024/04/07 06:43:35;;;;;;;1.90;1.30;;;18.20;93.90;;;;;;4212688;28;20193;-75
2024/04/07 06:45:36;;;;;;;2.50;1.20;;;18.20;94.00;;;;;;4192686;28;20268;-75
2024/04/07 06:47:38;;;;;;;4.07;1.27;;;18.30;93.90;;;;;;4213333;28;20587;-75
2024/04/07 06:49:41;;;;;;;2.17;1.10;;;18.40;92.30;;;;;;4213271;28;20201;-75
2024/04/07 06:51:42;;;;;;;2.13;1.20;;;18.40;92.80;;;;;;4212218;28;20653;-75
2024/04/07 06:53:43;;;;;;;3.03;1.67;;;18.50;91.90;;;;;;4209256;28;20196;-76
2024/04/07 06:55:45;;;;;;;2.37;1.70;;;18.50;93.80;;;;;;4193495;28;20197;-75
2024/04/07 06:57:46;;;;;;;1.93;1.20;;;18.50;93.80;;;;;;4214266;28;20245;-75
2024/04/07 06:59:50;;;;;;;2.23;1.30;;;18.50;91.60;;;;;;4211109;28;20733;-75
2024/04/07 07:01:51;;;;;;;1.80;1.00;;;18.60;90.70;;;;;;4211749;28;20231;-75
2024/04/07 07:03:53;;;;;;;2.67;1.10;;;18.60;90.90;;;;;;4210689;28;20288;-75
2024/04/07 07:05:55;;;;;;;2.10;1.10;;;18.60;91.20;;;;;;4198114;28;20674;-75
2024/04/07 07:07:57;;;;;;;3.03;1.00;;;18.70;88.60;;;;;;4211853;28;20205;-75
2024/04/07 07:09:58;;;;;;;1.83;1.10;;;18.80;91.10;;;;;;4211464;28;20252;-75
2024/04/07 07:12:00;;;;;;;1.57;1.03;;;18.80;86.60;;;;;;4210323;28;20220;-75
2024/04/07 07:14:01;;;;;;;3.37;1.47;;;18.90;89.90;;;;;;4212082;28;20205;-75
2024/04/07 07:16:03;;;;;;;3.13;1.50;;;19.00;90.40;;;;;;4215035;28;20201;-75
2024/04/07 07:18:04;;;;;;;2.17;1.10;;;19.00;88.10;;;;;;4215722;28;20272;-76
2024/04/07 07:20:07;;;;;;;1.97;1.03;;;19.20;86.70;;;;;;4213555;28;20197;-76
2024/04/07 07:22:09;;;;;;;3.80;1.20;;;19.20;86.80;;;;;;4215122;28;20216;-76
2024/04/07 07:24:11;;;;;;;2.27;1.13;;;19.30;91.20;;;;;;4216009;28;20208;-76
2024/04/07 07:26:12;;;;;;;4.20;1.30;;;19.40;90.00;;;;;;4213804;28;20209;-76
2024/04/07 07:28:14;;;;;;;3.27;1.10;;;19.40;86.60;;;;;;4213959;28;20197;-76
2024/04/07 07:30:15;;;;;;;1.97;1.20;;;19.50;87.40;;;;;;4213066;28;20287;-76
2024/04/07 07:32:17;;;;;;;1.93;1.13;;;19.50;87.90;;;;;;4200540;28;20217;-76
2024/04/07 07:34:18;;;;;;;3.63;1.30;;;19.60;89.60;;;;;;4199440;28;20252;-76
2024/04/07 07:36:20;;;;;;;2.53;0.93;;;19.70;90.60;;;;;;4218514;28;20207;-76
2024/04/07 07:38:22;;;;;;;2.03;1.10;;;19.80;90.80;;;;;;4217412;28;20252;-76
2024/04/07 07:40:24;;;;;;;1.73;0.80;;;19.80;88.40;;;;;;4212671;28;20208;-77
2024/04/07 07:42:25;;;;;;;4.50;1.40;;;19.90;90.00;;;;;;4225847;28;20240;-76
2024/04/07 07:44:27;;;;;;;2.50;1.00;;;19.90;90.20;;;;;;4224717;28;20214;-77
2024/04/07 07:46:28;;;;;;;2.43;1.10;;;20.00;87.80;;;;;;4223438;28;20653;-77
2024/04/07 07:48:29;;;;;;;1.63;1.30;;;20.10;91.70;;;;;;4197794;28;20197;-78
2024/04/07 07:50:31;;;;;;;3.30;1.07;;;20.10;90.20;;;;;;4217524;28;20201;-77
2024/04/07 07:52:32;;;;;;;2.73;1.33;;;20.20;90.30;;;;;;4216742;28;20228;-77
2024/04/07 07:54:35;;;;;;;2.93;1.00;;;20.30;86.90;;;;;;4217574;28;20195;-77
2024/04/07 07:56:36;;;;;;;2.33;1.40;;;20.30;89.10;;;;;;4216488;28;20304;-77
2024/04/07 07:58:39;;;;;;;2.90;1.40;;;20.40;87.30;;;;;;4216302;28;20208;-77
2024/04/07 08:00:40;;;;;;;4.33;1.67;;;20.40;88.30;;;;;;4214196;28;20236;-76
2024/04/07 08:02:41;;;;;;;2.63;1.20;;;20.50;89.80;;;;;;4198428;28;20224;-77
2024/04/07 08:04:42;;;;;;;1.87;1.20;;;20.60;87.40;;;;;;4209738;28;20891;-77
2024/04/07 08:06:44;;;;;;;5.37;1.17;;;20.70;89.20;;;;;;4211599;28;20212;-77
2024/04/07 08:08:45;;;;;;;3.07;1.10;;;20.80;89.80;;;;;;4211156;28;20232;-77
2024/04/07 08:10:49;;;;;;;1.53;0.90;;;20.80;91.90;;;;;;4212006;28;20197;-76
2024/04/07 08:12:50;;;;;;;2.53;1.03;;;21.00;89.60;;;;;;4214112;28;20221;-76
2024/04/07 08:14:51;;;;;;;1.93;1.00;;;21.10;87.60;;;;;;4209686;28;20197;-77
2024/04/07 08:16:53;;;;;;;1.67;1.13;;;21.20;90.00;;;;;;4205244;28;20646;-77
2024/04/07 08:18:54;;;;;;;3.37;1.20;;;21.30;86.30;;;;;;4187367;28;20985;-77
2024/04/07 08:20:56;;;;;;;2.83;1.30;;;21.40;86.10;;;;;;4209915;28;20273;-77
2024/04/07 08:22:58;;;;;;;5.60;1.03;;;21.50;82.40;;;;;;4210285;28;20292;-77
2024/04/07 08:24:59;;;;;;;1.90;0.97;;;21.60;83.00;;;;;;4211850;28;20420;-76
2024/04/07 08:27:03;;;;;;;1.63;1.00;;;21.70;82.50;;;;;;4211820;28;20291;-76
2024/04/07 08:29:04;;;;;;;2.63;1.13;;;21.90;80.50;;;;;;4213025;28;20225;-76
2024/04/07 08:31:06;;;;;;;2.53;1.20;;;22.00;73.80;;;;;;4212178;28;20221;-77
2024/04/07 08:33:07;;;;;;;1.80;1.10;;;22.10;71.80;;;;;;4212195;28;20229;-76
2024/04/07 08:35:09;;;;;;;3.77;1.30;;;22.20;69.10;;;;;;4212267;28;20832;-76
2024/04/07 08:37:09;;;;;;;2.53;1.13;;;22.30;66.20;;;;;;4211362;28;20308;-76
2024/04/07 08:39:12;;;;;;;3.23;0.90;;;22.40;65.00;;;;;;4212702;28;20225;-76
2024/04/07 08:41:14;;;;;;;1.77;1.03;;;22.50;67.80;;;;;;4212389;28;20225;-76
2024/04/07 08:43:19;;;;;;;1.80;1.10;;;22.60;59.00;;;;;;4212348;28;20193;-76
2024/04/07 08:45:21;;;;;;;3.57;1.17;;;22.80;60.30;;;;;;4211407;28;20204;-76
2024/04/07 08:47:24;;;;;;;2.77;0.90;;;22.80;54.60;;;;;;4210244;28;20220;-76
2024/04/07 08:49:27;;;;;;;3.63;1.10;;;22.90;48.20;;;;;;4209344;28;20672;-76
2024/04/07 08:51:28;;;;;;;2.47;0.90;;;23.00;46.70;;;;;;4211782;28;20244;-76
2024/04/07 08:53:30;;;;;;;2.03;1.10;;;23.00;44.20;;;;;;4210043;28;20197;-76
2024/04/07 08:55:31;;;;;;;2.13;1.03;;;23.00;44.90;;;;;;4212295;28;20224;-76
2024/04/07 08:57:33;;;;;;;3.23;1.10;;;23.00;44.60;;;;;;4211792;28;20217;-76
2024/04/07 08:59:37;;;;;;;1.27;0.97;;;23.10;44.10;;;;;;4214913;28;20284;-78
2024/04/07 09:01:44;;;;;;;2.07;1.10;;;23.10;46.60;;;;;;4208661;28;20303;-77
2024/04/07 09:03:47;;;;;;;3.07;1.30;;;23.20;46.00;;;;;;4192516;28;20217;-78
2024/04/07 09:05:49;;;;;;;2.67;1.00;;;23.30;43.30;;;;;;4214464;28;20197;-76
2024/04/07 09:07:50;;;;;;;2.33;1.00;;;23.30;40.80;;;;;;4210092;28;20644;-77
2024/04/07 09:09:52;;;;;;;2.80;1.10;;;23.40;40.60;;;;;;4211270;28;20193;-80
2024/04/07 09:11:53;;;;;;;2.47;1.10;;;23.40;41.10;;;;;;4194992;28;20256;-77
2024/04/07 09:13:55;;;;;;;1.67;1.10;;;23.40;40.50;;;;;;4194009;28;20217;-77
2024/04/07 09:15:57;;;;;;;5.40;1.17;;;23.50;41.00;;;;;;4216728;28;20208;-78
2024/04/07 09:17:59;;;;;;;1.80;1.23;;;23.50;40.80;;;;;;4213439;28;20266;-76
2024/04/07 09:20:06;;;;;;;3.60;1.20;;;23.60;39.60;;;;;;4213135;28;20215;-77
2024/04/07 09:22:17;;;;;;;3.40;1.17;;;23.60;38.70;;;;;;4207403;28;20735;-77
2024/04/07 09:24:18;;;;;;;4.87;1.50;;;23.60;36.90;;;;;;4195376;28;20201;-76
2024/04/07 09:26:21;;;;;;;4.83;1.20;;;23.60;37.30;;;;;;4196362;28;20202;-76
2024/04/07 09:28:21;;;;;;;6.20;1.40;;;23.70;38.30;;;;;;4209363;28;20197;-76
2024/04/07 09:30:24;;;;;;;1.90;1.00;;;23.70;38.70;;;;;;4212743;28;20683;-76
2024/04/07 09:32:26;;;;;;;4.53;1.10;;;23.80;38.20;;;;;;4215841;28;20697;-76
2024/04/07 09:34:31;;;;;;;4.33;1.33;;;23.80;36.90;;;;;;4215583;28;20198;-76
2024/04/07 09:36:32;;;;;;;6.50;1.30;;;23.80;37.10;;;;;;4211363;28;20228;-76
2024/04/07 09:38:34;;;;;;;6.97;1.30;;;23.90;36.10;;;;;;4210009;28;20217;-75
2024/04/07 09:40:38;;;;;;;5.53;1.17;;;23.90;36.10;;;;;;4214393;28;20220;-77
2024/04/07 09:42:40;;;;;;;2.83;1.07;;;23.90;37.30;;;;;;4210900;28;20273;-78
2024/04/07 09:44:45;;;;;;;8.87;1.30;;;23.90;36.70;;;;;;4213282;28;20213;-76
2024/04/07 09:46:47;;;;;;;3.60;1.00;;;23.90;38.10;;;;;;4211515;28;20216;-79
2024/04/07 09:48:50;;;;;;;1.90;0.83;;;23.80;38.40;;;;;;4214173;28;20237;-78
2024/04/07 09:50:59;;;;;;;2.70;0.93;;;23.80;37.70;;;;;;4209643;28;20665;-78
2024/04/07 09:53:05;;;;;;;2.87;1.10;;;23.80;38.40;;;;;;4217785;28;20219;-79
2024/04/07 09:55:13;;;;;;;2.77;1.30;;;23.90;38.30;;;;;;4207628;28;20225;-79
2024/04/07 09:57:15;;;;;;;2.67;1.20;;;23.90;37.90;;;;;;4219405;28;20201;-78
2024/04/07 09:59:20;;;;;;;3.87;1.17;;;23.90;38.80;;;;;;4223778;28;20560;-78
2024/04/07 10:01:22;;;;;;;3.93;0.90;;;23.90;37.10;;;;;;4224237;28;20224;-79
2024/04/07 10:03:24;;;;;;;3.47;1.30;;;23.80;37.90;;;;;;4214626;28;20240;-77
2024/04/07 10:05:26;;;;;;;5.90;1.33;;;23.80;37.20;;;;;;4206506;28;20911;-77
2024/04/07 10:07:28;;;;;;;5.00;1.23;;;23.80;38.70;;;;;;4205487;28;20205;-77
2024/04/07 10:09:30;;;;;;;2.47;1.50;;;23.80;39.10;;;;;;4206742;28;20661;-77
2024/04/07 10:11:32;;;;;;;4.13;1.13;;;23.90;40.00;;;;;;4208536;28;20221;-77
2024/04/07 10:13:33;;;;;;;5.73;1.30;;;23.90;39.00;;;;;;4213786;28;20287;-77
2024/04/07 10:15:37;;;;;;;7.40;1.60;;;23.90;38.60;;;;;;4210318;28;20189;-79
2024/04/07 10:17:44;;;;;;;4.07;1.20;;;24.00;39.10;;;;;;4213194;28;20213;-79
2024/04/07 10:19:46;;;;;;;4.50;1.20;;;24.00;39.00;;;;;;4209694;28;20193;-78
2024/04/07 10:21:49;;;;;;;3.83;1.40;;;24.00;39.60;;;;;;4209675;28;20339;-78
2024/04/07 10:23:53;;;;;;;3.13;1.30;;;24.00;39.70;;;;;;4205925;28;20296;-79
2024/04/07 10:25:59;;;;;;;2.03;1.30;;;24.00;38.70;;;;;;4221280;28;20213;-79
2024/04/07 10:28:07;;;;;;;5.37;1.10;;;24.00;37.60;;;;;;4209211;28;20552;-78
2024/04/07 10:30:10;;;;;;;4.93;1.13;;;24.10;36.70;;;;;;4212434;28;20283;-78
2024/04/07 10:32:20;;;;;;;4.53;1.40;;;24.10;38.00;;;;;;4215596;28;20632;-78
2024/04/07 10:34:21;;;;;;;6.33;1.17;;;24.20;38.60;;;;;;4211909;28;20204;-78
2024/04/07 10:36:25;;;;;;;3.53;1.60;;;24.30;37.70;;;;;;4212331;28;20201;-79
2024/04/07 10:38:42;;;;;;;4.20;1.30;;;24.30;37.10;;;;;;4214700;28;20299;-79
2024/04/07 10:40:45;;;;;;;7.07;1.47;;;24.40;38.80;;;;;;4217411;28;20269;-79